PWSweather.com
Personal Weather Stations
Station Observations
UXOLA
Alcoy, AlcoyES

AlcoyAlcoyES

Lat: 38.70299, Lon: -0.48184

Elevation: 1935

Station Type: PCE FWS-20,

http://www.fiestasalcoy.xyz

High Low Average
Temperature 65.5°F18.6°C 40.6°F4.8°C 51.9°F11.1°C
Dew Point 40.4°F4.7°C 30.6°F-0.8°C 34.6°F1.4°C
Winds 9.2 mph 14.8 kmh Calm Calm 3.0 mph WNW4.8 kmh WNW
Wind Gusts 17.4 mph28.0 kmh 1.6 mph2.6 kmh 6.0 mph9.7 kmh
Humidity 71% 30% 54%
Pressure 29.76 in1007.8 mb 29.65 in1004.1 mb -
Precipitation 0.00 in0.0 mm - -
Hour Temp Dew Point Humidity Winds Wind Gusts Pressure Precip Precip Rate Daily Precip Total
12:00 AM 45.9°F7.7°C 31.5°F-0.3°C 57% 0.7 mph WSW1.1 kmh WSW 2.2 mph3.5 kmh 29.74 in1007.1 mb 0.14 in3.6 mm 0.00 in0.0 mm 0.14 in3.6 mm
12:15 AM 45.3°F7.4°C 31.0°F-0.6°C 57% 0.7 mph W1.1 kmh W 2.2 mph3.5 kmh 29.75 in1007.5 mb 0.00 in0.0 mm 0.00 in0.0 mm 0.14 in3.6 mm
12:30 AM 45.1°F7.3°C 31.3°F-0.4°C 58% 1.6 mph NW2.6 kmh NW 2.2 mph3.5 kmh 29.75 in1007.5 mb 0.00 in0.0 mm 0.00 in0.0 mm 0.14 in3.6 mm
12:45 AM 45.0°F7.2°C 31.1°F-0.5°C 58% 0.7 mph WNW1.1 kmh WNW 3.1 mph5.0 kmh 29.75 in1007.5 mb 0.00 in0.0 mm 0.00 in0.0 mm 0.14 in3.6 mm
01:00 AM 44.8°F7.1°C 30.9°F-0.6°C 58% 1.6 mph W2.6 kmh W 3.1 mph5.0 kmh 29.75 in1007.5 mb 0.00 in0.0 mm 0.00 in0.0 mm 0.14 in3.6 mm
01:15 AM 44.4°F6.9°C 30.6°F-0.8°C 58% Calm Calm 2.2 mph3.5 kmh 29.76 in1007.8 mb 0.00 in0.0 mm 0.00 in0.0 mm 0.14 in3.6 mm
01:30 AM 43.9°F6.6°C 31.7°F-0.2°C 62% 0.7 mph W1.1 kmh W 2.2 mph3.5 kmh 29.75 in1007.5 mb 0.00 in0.0 mm 0.00 in0.0 mm 0.14 in3.6 mm
01:45 AM 43.5°F6.4°C 31.4°F-0.3°C 62% Calm Calm 2.2 mph3.5 kmh 29.75 in1007.5 mb 0.00 in0.0 mm 0.00 in0.0 mm 0.14 in3.6 mm
02:00 AM 43.2°F6.2°C 31.0°F-0.6°C 62% 1.6 mph WSW2.6 kmh WSW 2.2 mph3.5 kmh 29.75 in1007.5 mb 0.00 in0.0 mm 0.00 in0.0 mm 0.14 in3.6 mm
02:15 AM 42.8°F6.0°C 31.1°F-0.5°C 63% Calm Calm 1.6 mph2.6 kmh 29.75 in1007.5 mb 0.00 in0.0 mm 0.00 in0.0 mm 0.14 in3.6 mm
02:30 AM 42.8°F6.0°C 31.1°F-0.5°C 63% 0.7 mph NW1.1 kmh NW 2.2 mph3.5 kmh 29.75 in1007.5 mb 0.00 in0.0 mm 0.00 in0.0 mm 0.14 in3.6 mm
02:45 AM 42.6°F5.9°C 31.3°F-0.4°C 64% 1.6 mph NW2.6 kmh NW 3.1 mph5.0 kmh 29.75 in1007.5 mb 0.00 in0.0 mm 0.00 in0.0 mm 0.14 in3.6 mm
03:00 AM 42.3°F5.7°C 31.0°F-0.6°C 64% 0.7 mph NW1.1 kmh NW 2.2 mph3.5 kmh 29.74 in1007.1 mb 0.00 in0.0 mm 0.00 in0.0 mm 0.14 in3.6 mm
03:15 AM 42.1°F5.6°C 30.8°F-0.7°C 64% 1.6 mph WNW2.6 kmh WNW 3.1 mph5.0 kmh 29.74 in1007.1 mb 0.00 in0.0 mm 0.00 in0.0 mm 0.14 in3.6 mm
03:30 AM 42.1°F5.6°C 31.2°F-0.4°C 65% 0.7 mph NW1.1 kmh NW 3.1 mph5.0 kmh 29.73 in1006.8 mb 0.00 in0.0 mm 0.00 in0.0 mm 0.14 in3.6 mm
03:45 AM 42.4°F5.8°C 31.5°F-0.3°C 65% 1.6 mph WNW2.6 kmh WNW 3.1 mph5.0 kmh 29.73 in1006.8 mb 0.00 in0.0 mm 0.00 in0.0 mm 0.14 in3.6 mm
04:00 AM 42.1°F5.6°C 31.2°F-0.4°C 65% 1.6 mph NW2.6 kmh NW 2.2 mph3.5 kmh 29.73 in1006.8 mb 0.00 in0.0 mm 0.00 in0.0 mm 0.14 in3.6 mm
04:15 AM 41.7°F5.4°C 30.8°F-0.7°C 65% 0.7 mph W1.1 kmh W 3.8 mph6.1 kmh 29.73 in1006.8 mb 0.00 in0.0 mm 0.00 in0.0 mm 0.14 in3.6 mm
04:30 AM 41.5°F5.3°C 30.7°F-0.7°C 65% 0.7 mph ENE1.1 kmh ENE 2.2 mph3.5 kmh 29.73 in1006.8 mb 0.00 in0.0 mm 0.00 in0.0 mm 0.14 in3.6 mm
04:45 AM 41.4°F5.2°C 30.9°F-0.6°C 66% 1.6 mph NW2.6 kmh NW 2.2 mph3.5 kmh 29.73 in1006.8 mb 0.00 in0.0 mm 0.00 in0.0 mm 0.14 in3.6 mm
05:00 AM 41.4°F5.2°C 30.9°F-0.6°C 66% 0.7 mph NW1.1 kmh NW 3.8 mph6.1 kmh 29.73 in1006.8 mb 0.00 in0.0 mm 0.00 in0.0 mm 0.14 in3.6 mm
05:15 AM 41.0°F5.0°C 30.9°F-0.6°C 67% Calm Calm 3.1 mph5.0 kmh 29.73 in1006.8 mb 0.00 in0.0 mm 0.00 in0.0 mm 0.14 in3.6 mm
05:30 AM 41.0°F5.0°C 31.3°F-0.4°C 68% 1.6 mph NW2.6 kmh NW 3.1 mph5.0 kmh 29.72 in1006.4 mb 0.00 in0.0 mm 0.00 in0.0 mm 0.14 in3.6 mm
05:45 AM 41.0°F5.0°C 31.3°F-0.4°C 68% Calm Calm 3.1 mph5.0 kmh 29.72 in1006.4 mb 0.00 in0.0 mm 0.00 in0.0 mm 0.14 in3.6 mm
06:00 AM 41.2°F5.1°C 31.8°F-0.1°C 69% 0.7 mph NW1.1 kmh NW 3.1 mph5.0 kmh 29.72 in1006.4 mb 0.00 in0.0 mm 0.00 in0.0 mm 0.14 in3.6 mm
06:15 AM 40.8°F4.9°C 31.5°F-0.3°C 69% 0.7 mph N1.1 kmh N 2.2 mph3.5 kmh 29.72 in1006.4 mb 0.00 in0.0 mm 0.00 in0.0 mm 0.14 in3.6 mm
06:30 AM 40.6°F4.8°C 31.6°F-0.2°C 70% 0.7 mph NW1.1 kmh NW 2.2 mph3.5 kmh 29.72 in1006.4 mb 0.00 in0.0 mm 0.00 in0.0 mm 0.14 in3.6 mm
06:45 AM 40.8°F4.9°C 31.8°F-0.1°C 70% 1.6 mph N2.6 kmh N 2.2 mph3.5 kmh 29.73 in1006.8 mb 0.00 in0.0 mm 0.00 in0.0 mm 0.14 in3.6 mm
07:00 AM 41.2°F5.1°C 32.2°F0.1°C 70% 0.7 mph NNW1.1 kmh NNW 2.2 mph3.5 kmh 29.72 in1006.4 mb 0.00 in0.0 mm 0.00 in0.0 mm 0.14 in3.6 mm
07:15 AM 41.5°F5.3°C 32.9°F0.5°C 71% 1.6 mph N2.6 kmh N 3.1 mph5.0 kmh 29.73 in1006.8 mb 0.00 in0.0 mm 0.00 in0.0 mm 0.14 in3.6 mm
07:30 AM 41.7°F5.4°C 32.7°F0.4°C 70% 0.7 mph NW1.1 kmh NW 3.1 mph5.0 kmh 29.73 in1006.8 mb 0.00 in0.0 mm 0.00 in0.0 mm 0.14 in3.6 mm
07:45 AM 41.9°F5.5°C 32.8°F0.4°C 70% Calm Calm 3.8 mph6.1 kmh 29.72 in1006.4 mb 0.00 in0.0 mm 0.00 in0.0 mm 0.14 in3.6 mm
08:00 AM 41.7°F5.4°C 32.7°F0.4°C 70% 2.2 mph NW3.5 kmh NW 3.1 mph5.0 kmh 29.72 in1006.4 mb 0.00 in0.0 mm 0.00 in0.0 mm 0.14 in3.6 mm
08:15 AM 42.3°F5.7°C 33.2°F0.7°C 70% 1.6 mph NW2.6 kmh NW 3.1 mph5.0 kmh 29.72 in1006.4 mb 0.00 in0.0 mm 0.00 in0.0 mm 0.14 in3.6 mm
08:30 AM 42.4°F5.8°C 33.7°F0.9°C 71% 0.7 mph N1.1 kmh N 1.6 mph2.6 kmh 29.72 in1006.4 mb 0.00 in0.0 mm 0.00 in0.0 mm 0.14 in3.6 mm
08:45 AM 43.0°F6.1°C 34.2°F1.2°C 71% 1.6 mph NNW2.6 kmh NNW 4.5 mph7.2 kmh 29.73 in1006.8 mb 0.00 in0.0 mm 0.00 in0.0 mm 0.14 in3.6 mm
09:00 AM 43.9°F6.6°C 34.7°F1.5°C 70% 1.6 mph WNW2.6 kmh WNW 3.8 mph6.1 kmh 29.74 in1007.1 mb 0.00 in0.0 mm 0.00 in0.0 mm 0.14 in3.6 mm
09:15 AM 44.8°F7.1°C 33.7°F0.9°C 65% Calm Calm 2.2 mph3.5 kmh 29.73 in1006.8 mb 0.00 in0.0 mm 0.00 in0.0 mm 0.14 in3.6 mm
09:30 AM 46.8°F8.2°C 35.2°F1.8°C 64% Calm Calm 2.2 mph3.5 kmh 29.73 in1006.8 mb 0.00 in0.0 mm 0.00 in0.0 mm 0.14 in3.6 mm
09:45 AM 48.9°F9.4°C 36.5°F2.5°C 62% 1.6 mph WNW2.6 kmh WNW 3.8 mph6.1 kmh 29.73 in1006.8 mb 0.00 in0.0 mm 0.00 in0.0 mm 0.14 in3.6 mm
10:00 AM 50.7°F10.4°C 37.8°F3.2°C 61% 2.2 mph WNW3.5 kmh WNW 4.5 mph7.2 kmh 29.73 in1006.8 mb 0.00 in0.0 mm 0.00 in0.0 mm 0.14 in3.6 mm
10:15 AM 52.7°F11.5°C 38.8°F3.8°C 59% 3.1 mph W5.0 kmh W 5.4 mph8.7 kmh 29.73 in1006.8 mb 0.00 in0.0 mm 0.00 in0.0 mm 0.14 in3.6 mm
10:30 AM 54.1°F12.3°C 36.9°F2.7°C 52% 1.6 mph WSW2.6 kmh WSW 6.0 mph9.7 kmh 29.74 in1007.1 mb 0.00 in0.0 mm 0.00 in0.0 mm 0.14 in3.6 mm
10:45 AM 55.8°F13.2°C 37.4°F3.0°C 50% 3.1 mph NW5.0 kmh NW 6.9 mph11.1 kmh 29.74 in1007.1 mb 0.00 in0.0 mm 0.00 in0.0 mm 0.14 in3.6 mm
11:00 AM 57.0°F13.9°C 37.0°F2.8°C 47% 1.6 mph W2.6 kmh W 5.4 mph8.7 kmh 29.74 in1007.1 mb 0.00 in0.0 mm 0.00 in0.0 mm 0.14 in3.6 mm
11:15 AM 58.1°F14.5°C 36.9°F2.7°C 45% 1.6 mph WNW2.6 kmh WNW 4.5 mph7.2 kmh 29.73 in1006.8 mb 0.00 in0.0 mm 0.00 in0.0 mm 0.14 in3.6 mm
11:30 AM 58.6°F14.8°C 36.2°F2.3°C 43% 2.2 mph WNW3.5 kmh WNW 4.5 mph7.2 kmh 29.73 in1006.8 mb 0.00 in0.0 mm 0.00 in0.0 mm 0.14 in3.6 mm
11:45 AM 59.2°F15.1°C 36.1°F2.3°C 42% 0.7 mph E1.1 kmh E 6.0 mph9.7 kmh 29.73 in1006.8 mb 0.00 in0.0 mm 0.00 in0.0 mm 0.14 in3.6 mm
12:00 PM 59.9°F15.5°C 34.2°F1.2°C 38% 6.0 mph WNW9.7 kmh WNW 12.1 mph19.5 kmh 29.73 in1006.8 mb 0.00 in0.0 mm 0.00 in0.0 mm 0.14 in3.6 mm
12:15 PM 60.3°F15.7°C 34.6°F1.4°C 38% 2.2 mph NW3.5 kmh NW 13.0 mph20.9 kmh 29.73 in1006.8 mb 0.00 in0.0 mm 0.00 in0.0 mm 0.14 in3.6 mm
12:30 PM 60.6°F15.9°C 34.2°F1.2°C 37% 7.6 mph NW12.2 kmh NW 11.4 mph18.3 kmh 29.72 in1006.4 mb 0.00 in0.0 mm 0.00 in0.0 mm 0.14 in3.6 mm
12:45 PM 61.0°F16.1°C 35.2°F1.8°C 38% 6.0 mph NW9.7 kmh NW 10.7 mph17.2 kmh 29.71 in1006.1 mb 0.00 in0.0 mm 0.00 in0.0 mm 0.14 in3.6 mm
01:00 PM 61.5°F16.4°C 35.7°F2.1°C 38% 7.6 mph NW12.2 kmh NW 13.0 mph20.9 kmh 29.71 in1006.1 mb 0.00 in0.0 mm 0.00 in0.0 mm 0.14 in3.6 mm
01:15 PM 62.1°F16.7°C 32.6°F0.3°C 33% 6.0 mph WNW9.7 kmh WNW 10.7 mph17.2 kmh 29.71 in1006.1 mb 0.00 in0.0 mm 0.00 in0.0 mm 0.14 in3.6 mm
01:30 PM 62.8°F17.1°C 33.3°F0.7°C 33% 7.6 mph W12.2 kmh W 10.7 mph17.2 kmh 29.70 in1005.8 mb 0.00 in0.0 mm 0.00 in0.0 mm 0.14 in3.6 mm
01:45 PM 63.3°F17.4°C 33.0°F0.6°C 32% 6.0 mph NW9.7 kmh NW 10.7 mph17.2 kmh 29.69 in1005.4 mb 0.00 in0.0 mm 0.00 in0.0 mm 0.14 in3.6 mm
02:00 PM 63.7°F17.6°C 33.3°F0.7°C 32% 9.2 mph NW14.8 kmh NW 13.6 mph21.9 kmh 29.69 in1005.4 mb 0.00 in0.0 mm 0.00 in0.0 mm 0.14 in3.6 mm
02:15 PM 64.0°F17.8°C 32.8°F0.4°C 31% 8.3 mph NW13.4 kmh NW 12.1 mph19.5 kmh 29.68 in1005.1 mb 0.00 in0.0 mm 0.00 in0.0 mm 0.14 in3.6 mm
02:30 PM 64.2°F17.9°C 33.0°F0.6°C 31% 7.6 mph W12.2 kmh W 13.0 mph20.9 kmh 29.68 in1005.1 mb 0.00 in0.0 mm 0.00 in0.0 mm 0.14 in3.6 mm
02:45 PM 64.6°F18.1°C 33.3°F0.7°C 31% 5.4 mph WNW8.7 kmh WNW 11.4 mph18.3 kmh 29.67 in1004.7 mb 0.00 in0.0 mm 0.00 in0.0 mm 0.14 in3.6 mm
03:00 PM 64.8°F18.2°C 33.4°F0.8°C 31% 3.1 mph NW5.0 kmh NW 11.4 mph18.3 kmh 29.67 in1004.7 mb 0.00 in0.0 mm 0.00 in0.0 mm 0.14 in3.6 mm
03:15 PM 65.5°F18.6°C 34.1°F1.2°C 31% 4.5 mph NW7.2 kmh NW 9.2 mph14.8 kmh 29.66 in1004.4 mb 0.00 in0.0 mm 0.00 in0.0 mm 0.14 in3.6 mm
03:30 PM 64.9°F18.3°C 32.8°F0.4°C 30% 6.0 mph NW9.7 kmh NW 17.4 mph28.0 kmh 29.66 in1004.4 mb 0.00 in0.0 mm 0.00 in0.0 mm 0.14 in3.6 mm
03:45 PM 64.9°F18.3°C 32.8°F0.4°C 30% 7.6 mph NW12.2 kmh NW 15.2 mph24.5 kmh 29.66 in1004.4 mb 0.00 in0.0 mm 0.00 in0.0 mm 0.14 in3.6 mm
04:00 PM 65.1°F18.4°C 32.9°F0.5°C 30% 3.8 mph NW6.1 kmh NW 10.7 mph17.2 kmh 29.66 in1004.4 mb 0.00 in0.0 mm 0.00 in0.0 mm 0.14 in3.6 mm
04:15 PM 64.9°F18.3°C 33.6°F0.9°C 31% 3.8 mph WNW6.1 kmh WNW 9.8 mph15.8 kmh 29.66 in1004.4 mb 0.00 in0.0 mm 0.00 in0.0 mm 0.14 in3.6 mm
04:30 PM 64.8°F18.2°C 33.4°F0.8°C 31% 4.5 mph WNW7.2 kmh WNW 10.7 mph17.2 kmh 29.66 in1004.4 mb 0.00 in0.0 mm 0.00 in0.0 mm 0.14 in3.6 mm
04:45 PM 64.8°F18.2°C 33.4°F0.8°C 31% 6.0 mph W9.7 kmh W 9.8 mph15.8 kmh 29.66 in1004.4 mb 0.00 in0.0 mm 0.00 in0.0 mm 0.14 in3.6 mm
05:00 PM 64.4°F18.0°C 33.9°F1.1°C 32% 4.5 mph WNW7.2 kmh WNW 9.8 mph15.8 kmh 29.65 in1004.1 mb 0.00 in0.0 mm 0.00 in0.0 mm 0.14 in3.6 mm
05:15 PM 63.9°F17.7°C 34.2°F1.2°C 33% 5.4 mph WNW8.7 kmh WNW 10.7 mph17.2 kmh 29.66 in1004.4 mb 0.00 in0.0 mm 0.00 in0.0 mm 0.14 in3.6 mm
05:30 PM 63.5°F17.5°C 33.9°F1.1°C 33% 3.8 mph WNW6.1 kmh WNW 6.9 mph11.1 kmh 29.65 in1004.1 mb 0.00 in0.0 mm 0.00 in0.0 mm 0.14 in3.6 mm
05:45 PM 62.8°F17.1°C 34.0°F1.1°C 34% 3.8 mph WNW6.1 kmh WNW 6.9 mph11.1 kmh 29.65 in1004.1 mb 0.00 in0.0 mm 0.00 in0.0 mm 0.14 in3.6 mm
06:00 PM 61.5°F16.4°C 37.0°F2.8°C 40% 3.8 mph NW6.1 kmh NW 6.9 mph11.1 kmh 29.65 in1004.1 mb 0.00 in0.0 mm 0.00 in0.0 mm 0.14 in3.6 mm
06:15 PM 60.8°F16.0°C 37.6°F3.1°C 42% 3.1 mph NW5.0 kmh NW 6.0 mph9.7 kmh 29.65 in1004.1 mb 0.00 in0.0 mm 0.00 in0.0 mm 0.14 in3.6 mm
06:30 PM 59.9°F15.5°C 38.5°F3.6°C 45% 3.1 mph NW5.0 kmh NW 5.4 mph8.7 kmh 29.65 in1004.1 mb 0.00 in0.0 mm 0.00 in0.0 mm 0.14 in3.6 mm
06:45 PM 59.0°F15.0°C 40.4°F4.7°C 50% 6.0 mph NW9.7 kmh NW 12.1 mph19.5 kmh 29.65 in1004.1 mb 0.00 in0.0 mm 0.00 in0.0 mm 0.14 in3.6 mm
07:00 PM 58.3°F14.6°C 39.7°F4.3°C 50% 3.1 mph NW5.0 kmh NW 6.9 mph11.1 kmh 29.66 in1004.4 mb 0.00 in0.0 mm 0.00 in0.0 mm 0.14 in3.6 mm
07:15 PM 57.4°F14.1°C 38.9°F3.8°C 50% 2.2 mph WNW3.5 kmh WNW 6.0 mph9.7 kmh 29.66 in1004.4 mb 0.00 in0.0 mm 0.00 in0.0 mm 0.14 in3.6 mm
07:30 PM 55.9°F13.3°C 38.1°F3.4°C 51% 3.1 mph NW5.0 kmh NW 3.8 mph6.1 kmh 29.66 in1004.4 mb 0.00 in0.0 mm 0.00 in0.0 mm 0.14 in3.6 mm
07:45 PM 54.7°F12.6°C 37.9°F3.3°C 53% 3.1 mph NW5.0 kmh NW 4.5 mph7.2 kmh 29.66 in1004.4 mb 0.00 in0.0 mm 0.00 in0.0 mm 0.14 in3.6 mm
08:00 PM 53.8°F12.1°C 38.0°F3.3°C 55% 1.6 mph W2.6 kmh W 3.1 mph5.0 kmh 29.67 in1004.7 mb 0.00 in0.0 mm 0.00 in0.0 mm 0.14 in3.6 mm
08:15 PM 53.1°F11.7°C 38.2°F3.4°C 57% 3.1 mph NW5.0 kmh NW 5.4 mph8.7 kmh 29.67 in1004.7 mb 0.00 in0.0 mm 0.00 in0.0 mm 0.14 in3.6 mm
08:30 PM 52.5°F11.4°C 39.5°F4.2°C 61% 2.2 mph NW3.5 kmh NW 3.1 mph5.0 kmh 29.67 in1004.7 mb 0.00 in0.0 mm 0.00 in0.0 mm 0.14 in3.6 mm
08:45 PM 52.2°F11.2°C 39.5°F4.2°C 62% 1.6 mph NW2.6 kmh NW 3.8 mph6.1 kmh 29.67 in1004.7 mb 0.00 in0.0 mm 0.00 in0.0 mm 0.14 in3.6 mm
09:00 PM 52.2°F11.2°C 39.5°F4.2°C 62% 1.6 mph NW2.6 kmh NW 3.8 mph6.1 kmh 29.67 in1004.7 mb 0.00 in0.0 mm 0.00 in0.0 mm 0.14 in3.6 mm
09:15 PM 52.2°F11.2°C 39.5°F4.2°C 62% 1.6 mph NW2.6 kmh NW 3.8 mph6.1 kmh 29.67 in1004.7 mb 0.00 in0.0 mm 0.00 in0.0 mm 0.14 in3.6 mm
09:30 PM 52.2°F11.2°C 39.5°F4.2°C 62% 1.6 mph NW2.6 kmh NW 3.8 mph6.1 kmh 29.67 in1004.7 mb 0.00 in0.0 mm 0.00 in0.0 mm 0.14 in3.6 mm
09:45 PM 52.2°F11.2°C 39.5°F4.2°C 62% 1.6 mph NW2.6 kmh NW 3.8 mph6.1 kmh 29.67 in1004.7 mb 0.00 in0.0 mm 0.00 in0.0 mm 0.14 in3.6 mm
10:00 PM 52.2°F11.2°C 39.5°F4.2°C 62% 1.6 mph NW2.6 kmh NW 3.8 mph6.1 kmh 29.67 in1004.7 mb 0.00 in0.0 mm 0.00 in0.0 mm 0.14 in3.6 mm
10:15 PM 52.2°F11.2°C 39.5°F4.2°C 62% 1.6 mph NW2.6 kmh NW 3.8 mph6.1 kmh 29.67 in1004.7 mb 0.00 in0.0 mm 0.00 in0.0 mm 0.14 in3.6 mm
10:30 PM 52.2°F11.2°C 39.5°F4.2°C 62% 1.6 mph NW2.6 kmh NW 3.8 mph6.1 kmh 29.67 in1004.7 mb 0.00 in0.0 mm 0.00 in0.0 mm 0.14 in3.6 mm
10:45 PM 52.2°F11.2°C 39.5°F4.2°C 62% 1.6 mph NW2.6 kmh NW 3.8 mph6.1 kmh 29.67 in1004.7 mb 0.00 in0.0 mm 0.00 in0.0 mm 0.14 in3.6 mm
11:00 PM 52.2°F11.2°C 39.5°F4.2°C 62% 1.6 mph NW2.6 kmh NW 3.8 mph6.1 kmh 29.67 in1004.7 mb 0.00 in0.0 mm 0.00 in0.0 mm 0.14 in3.6 mm
11:15 PM 52.2°F11.2°C 39.5°F4.2°C 62% 1.6 mph NW2.6 kmh NW 3.8 mph6.1 kmh 29.67 in1004.7 mb 0.00 in0.0 mm 0.00 in0.0 mm 0.14 in3.6 mm
11:30 PM 52.2°F11.2°C 39.5°F4.2°C 62% 1.6 mph NW2.6 kmh NW 3.8 mph6.1 kmh 29.67 in1004.7 mb 0.00 in0.0 mm 0.00 in0.0 mm 0.14 in3.6 mm
11:45 PM 52.2°F11.2°C 39.5°F4.2°C 62% 1.6 mph NW2.6 kmh NW 3.8 mph6.1 kmh 29.67 in1004.7 mb 0.00 in0.0 mm 0.00 in0.0 mm 0.14 in3.6 mm